createdAt,value
2019-03-05T00:00:40.900Z,7.24
2019-03-05T00:03:09.797Z,7.24
2019-03-05T00:05:38.558Z,7.14
2019-03-05T00:08:07.599Z,7.14
2019-03-05T00:10:36.377Z,7.18
2019-03-05T00:13:05.098Z,7.22
2019-03-05T00:15:33.899Z,7.23
2019-03-05T00:18:02.639Z,7.06
2019-03-05T00:20:31.438Z,7.19
2019-03-05T00:23:00.199Z,7.20
2019-03-05T00:25:32.005Z,6.83
2019-03-05T00:28:28.217Z,6.79
2019-03-05T00:31:02.829Z,6.81
2019-03-05T00:33:40.079Z,6.62
2019-03-05T00:36:11.742Z,6.58
2019-03-05T00:38:46.319Z,6.49
2019-03-05T00:41:35.300Z,6.35
2019-03-05T00:44:40.339Z,6.36
2019-03-05T00:47:20.919Z,6.32
2019-03-05T00:50:17.038Z,6.30
2019-03-05T00:52:48.717Z,6.28
2019-03-05T00:55:49.982Z,6.25
2019-03-05T00:58:27.622Z,6.10
2019-03-05T01:01:21.837Z,6.05
2019-03-05T01:03:56.099Z,6.05
2019-03-05T01:06:27.503Z,6.18
2019-03-05T01:08:57.725Z,6.06
2019-03-05T01:11:27.000Z,6.01
2019-03-05T01:13:55.799Z,5.93
2019-03-05T01:16:29.518Z,5.80
2019-03-05T01:18:58.418Z,5.83
2019-03-05T01:21:27.153Z,5.90
2019-03-05T01:23:55.920Z,5.87
2019-03-05T01:26:25.067Z,5.89
2019-03-05T01:28:53.821Z,5.98
2019-03-05T01:31:24.622Z,5.80
2019-03-05T01:33:54.977Z,5.81
2019-03-05T01:36:25.279Z,5.85
2019-03-05T01:39:04.422Z,5.90
2019-03-05T01:41:33.477Z,5.96
2019-03-05T01:44:02.277Z,6.00
2019-03-05T01:46:31.017Z,5.94
2019-03-05T01:48:59.757Z,5.94
2019-03-05T01:51:28.537Z,5.81
2019-03-05T01:53:57.300Z,5.80
2019-03-05T01:56:26.102Z,5.70
2019-03-05T01:58:54.822Z,5.73
2019-03-05T02:01:23.558Z,5.62
2019-03-05T02:03:52.358Z,5.64
2019-03-05T02:06:21.497Z,5.53
2019-03-05T02:08:50.278Z,5.57
2019-03-05T02:11:19.019Z,5.46
2019-03-05T02:13:47.757Z,5.29
2019-03-05T02:16:16.538Z,5.23
2019-03-05T02:18:45.379Z,5.32
2019-03-05T02:21:14.120Z,5.21
2019-03-05T02:24:05.020Z,5.16
2019-03-05T02:26:42.761Z,5.17
2019-03-05T02:29:22.959Z,5.15
2019-03-05T02:32:03.538Z,5.10
2019-03-05T02:34:47.505Z,4.98
2019-03-05T02:37:22.065Z,5.00
2019-03-05T02:40:14.599Z,4.99
2019-03-05T02:42:55.119Z,5.01
2019-03-05T02:45:41.988Z,4.90
2019-03-05T02:48:31.780Z,4.90
2019-03-05T02:51:24.680Z,4.97
2019-03-05T02:54:14.178Z,4.91
2019-03-05T02:57:08.482Z,4.87
2019-03-05T02:59:36.584Z,4.87
2019-03-05T03:02:15.120Z,4.81
2019-03-05T03:04:45.497Z,4.76
2019-03-05T03:07:14.262Z,4.79
2019-03-05T03:09:51.677Z,4.79
2019-03-05T03:12:20.759Z,4.72
2019-03-05T03:14:49.521Z,4.78
2019-03-05T03:17:18.303Z,4.67
2019-03-05T03:19:47.058Z,4.68
2019-03-05T03:22:15.814Z,4.65
2019-03-05T03:24:44.590Z,4.66
2019-03-05T03:27:13.678Z,4.54
2019-03-05T03:29:42.455Z,4.71
2019-03-05T03:32:11.240Z,4.71
2019-03-05T03:34:40.022Z,4.75
2019-03-05T03:37:08.818Z,4.76
2019-03-05T03:39:38.041Z,4.71
2019-03-05T03:42:06.800Z,4.72
2019-03-05T03:44:35.543Z,4.62
2019-03-05T03:47:04.319Z,4.65
2019-03-05T03:49:33.079Z,4.66
2019-03-05T03:52:01.859Z,4.59
2019-03-05T03:54:30.633Z,4.69
2019-03-05T03:56:59.418Z,4.69
2019-03-05T03:59:28.146Z,4.61
2019-03-05T04:01:56.903Z,4.66
2019-03-05T04:04:25.698Z,4.62
2019-03-05T04:06:54.458Z,4.60
2019-03-05T04:09:23.324Z,4.59
2019-03-05T04:11:52.098Z,4.62
2019-03-05T04:14:20.881Z,4.59
2019-03-05T04:16:49.619Z,4.57
2019-03-05T04:19:19.958Z,4.59
2019-03-05T04:21:48.759Z,4.53
2019-03-05T04:24:17.497Z,4.60
2019-03-05T04:26:46.278Z,4.58
2019-03-05T04:29:15.026Z,4.54
2019-03-05T04:31:43.817Z,4.61
2019-03-05T04:34:12.578Z,4.64
2019-03-05T04:36:41.317Z,4.64
2019-03-05T04:39:12.257Z,4.60
2019-03-05T04:41:41.025Z,4.62
2019-03-05T04:44:09.839Z,4.63
2019-03-05T04:46:38.579Z,4.66
2019-03-05T04:49:08.877Z,4.56
2019-03-05T04:51:41.938Z,4.59
2019-03-05T04:54:10.662Z,4.59
2019-03-05T04:56:39.479Z,4.59
2019-03-05T04:59:08.258Z,4.54
2019-03-05T05:01:36.998Z,4.58
2019-03-05T05:04:05.797Z,4.51
2019-03-05T05:06:34.539Z,4.24
2019-03-05T05:09:04.317Z,4.32
2019-03-05T05:11:33.078Z,4.25
2019-03-05T05:14:01.839Z,4.23
2019-03-05T05:16:30.619Z,4.25
2019-03-05T05:18:59.379Z,4.17
2019-03-05T05:21:28.161Z,4.28
2019-03-05T05:23:56.902Z,4.42
2019-03-05T05:26:26.078Z,4.50
2019-03-05T05:28:54.852Z,4.49
2019-03-05T05:31:23.861Z,4.55
2019-03-05T05:33:52.638Z,4.56
2019-03-05T05:36:21.360Z,4.64
2019-03-05T05:38:50.159Z,4.68
2019-03-05T05:41:18.918Z,4.68
2019-03-05T05:43:47.665Z,4.71
2019-03-05T05:46:16.466Z,4.76
2019-03-05T05:48:45.199Z,4.76
2019-03-05T05:51:13.933Z,4.77
2019-03-05T05:53:42.696Z,4.79
2019-03-05T05:56:11.409Z,4.78
2019-03-05T05:58:40.336Z,4.79
2019-03-05T06:01:10.653Z,4.84
2019-03-05T06:03:39.403Z,4.84
2019-03-05T06:06:08.171Z,4.90
2019-03-05T06:08:36.915Z,4.78
2019-03-05T06:11:05.701Z,4.90
2019-03-05T06:13:35.853Z,4.87
2019-03-05T06:16:04.744Z,4.84
2019-03-05T06:18:33.507Z,4.87
2019-03-05T06:21:02.237Z,4.88
2019-03-05T06:23:32.753Z,4.80
2019-03-05T06:26:01.479Z,5.00
2019-03-05T06:28:30.356Z,5.00
2019-03-05T06:30:59.100Z,5.05
2019-03-05T06:33:27.839Z,5.07
2019-03-05T06:35:56.590Z,5.07
2019-03-05T06:38:25.471Z,5.09
2019-03-05T06:40:54.206Z,5.07
2019-03-05T06:43:23.195Z,4.99
2019-03-05T06:45:51.959Z,5.01
2019-03-05T06:48:20.692Z,5.01
2019-03-05T06:50:49.463Z,5.01
2019-03-05T06:53:18.182Z,5.09
2019-03-05T06:55:47.224Z,5.02
2019-03-05T06:58:16.336Z,4.95
2019-03-05T07:00:45.073Z,5.03
2019-03-05T07:03:13.834Z,5.03
2019-03-05T07:06:18.920Z,5.09
2019-03-05T07:08:50.619Z,4.99
2019-03-05T07:11:30.854Z,4.98
2019-03-05T07:14:11.573Z,4.99
2019-03-05T07:16:52.106Z,5.08
2019-03-05T07:19:22.679Z,5.08
2019-03-05T07:22:00.063Z,5.15
2019-03-05T07:24:46.638Z,5.24
2019-03-05T07:27:18.158Z,5.21
2019-03-05T07:29:46.935Z,5.31
2019-03-05T07:32:15.654Z,5.59
2019-03-05T07:34:45.947Z,5.89
2019-03-05T07:37:14.829Z,6.10
2019-03-05T07:39:43.696Z,6.27
2019-03-05T07:42:12.545Z,6.41
2019-03-05T07:44:41.300Z,6.54
2019-03-05T07:47:10.034Z,6.73
2019-03-05T07:49:43.778Z,6.75
2019-03-05T07:52:09.309Z,6.84
2019-03-05T07:54:38.388Z,6.90
2019-03-05T07:57:07.161Z,7.02
2019-03-05T07:59:35.969Z,7.05
2019-03-05T08:02:05.233Z,7.20
2019-03-05T08:04:33.961Z,7.26
2019-03-05T08:07:02.743Z,7.37
2019-03-05T08:09:38.957Z,7.25
2019-03-05T08:12:23.038Z,7.01
2019-03-05T08:15:00.765Z,6.95
2019-03-05T08:17:29.928Z,7.06
2019-03-05T08:19:58.681Z,7.20
2019-03-05T08:22:28.437Z,7.41
2019-03-05T08:24:57.238Z,7.30
2019-03-05T08:27:26.008Z,7.41
2019-03-05T08:29:54.834Z,7.43
2019-03-05T08:32:24.593Z,7.47
2019-03-05T08:34:53.339Z,7.62
2019-03-05T08:37:22.124Z,7.81
2019-03-05T08:39:50.880Z,7.91
2019-03-05T08:42:19.689Z,7.73
2019-03-05T08:44:50.629Z,7.92
2019-03-05T08:47:19.723Z,7.87
2019-03-05T08:49:48.528Z,7.69
2019-03-05T08:52:17.288Z,7.94
2019-03-05T08:54:46.465Z,8.04
2019-03-05T08:57:15.208Z,8.20
2019-03-05T08:59:43.963Z,8.41
2019-03-05T09:02:12.756Z,8.44
2019-03-05T09:04:41.559Z,8.05
2019-03-05T09:07:10.363Z,8.12
2019-03-05T09:09:40.484Z,8.21
2019-03-05T09:12:09.242Z,8.23
2019-03-05T09:14:38.408Z,8.26
2019-03-05T09:17:07.354Z,8.44
2019-03-05T09:19:36.164Z,8.47
2019-03-05T09:22:04.941Z,8.59
2019-03-05T09:24:33.685Z,8.74
2019-03-05T09:27:02.462Z,9.43
2019-03-05T09:29:31.200Z,9.66
2019-03-05T09:31:59.977Z,9.28
2019-03-05T09:34:28.724Z,9.28
2019-03-05T09:36:57.520Z,9.47
2019-03-05T09:39:26.350Z,9.67
2019-03-05T09:41:55.840Z,9.66
2019-03-05T09:44:24.594Z,9.82
2019-03-05T09:46:53.343Z,9.53
2019-03-05T09:49:22.142Z,9.06
2019-03-05T09:51:50.990Z,9.13
2019-03-05T09:54:19.790Z,9.64
2019-03-05T09:56:48.559Z,9.60
2019-03-05T09:59:17.303Z,9.98
2019-03-05T10:01:47.649Z,9.58
2019-03-05T10:04:16.687Z,8.95
2019-03-05T10:06:45.404Z,9.51
2019-03-05T10:09:14.859Z,9.80
2019-03-05T10:11:43.608Z,10.36
2019-03-05T10:14:12.402Z,10.44
2019-03-05T10:16:41.232Z,9.68
2019-03-05T10:19:10.033Z,10.23
2019-03-05T10:21:46.334Z,10.37
2019-03-05T10:24:11.115Z,10.54
2019-03-05T10:26:40.282Z,9.69
2019-03-05T10:29:09.075Z,9.74
2019-03-05T10:31:37.901Z,10.43
2019-03-05T10:34:06.669Z,11.22
2019-03-05T10:36:37.141Z,11.04
2019-03-05T10:39:08.852Z,10.32
2019-03-05T10:41:37.598Z,10.40
2019-03-05T10:44:06.349Z,9.92
2019-03-05T10:46:35.139Z,9.92
2019-03-05T10:49:03.901Z,10.26
2019-03-05T10:51:32.802Z,10.43
2019-03-05T10:54:02.290Z,9.78
2019-03-05T10:56:31.585Z,9.44
2019-03-05T10:59:00.465Z,9.09
2019-03-05T11:01:29.278Z,8.83
2019-03-05T11:03:58.935Z,8.91
2019-03-05T11:06:27.675Z,8.98
2019-03-05T11:08:56.490Z,9.42
2019-03-05T11:11:27.634Z,9.25
2019-03-05T11:13:56.432Z,9.68
2019-03-05T11:16:31.141Z,10.09
2019-03-05T11:18:59.279Z,10.27
2019-03-05T11:21:28.067Z,11.01
2019-03-05T11:23:56.839Z,10.09
2019-03-05T11:26:25.643Z,10.56
2019-03-05T11:28:54.801Z,10.97
2019-03-05T11:31:23.950Z,11.04
2019-03-05T11:33:52.698Z,10.97
2019-03-05T11:36:21.434Z,10.96
2019-03-05T11:38:50.224Z,10.12
2019-03-05T11:41:18.959Z,9.42
2019-03-05T11:43:47.778Z,8.98
2019-03-05T11:46:17.599Z,8.72
2019-03-05T11:48:46.339Z,6.22
2019-03-05T11:51:15.991Z,5.63
2019-03-05T11:53:44.733Z,5.57
2019-03-05T11:56:14.994Z,5.59
2019-03-05T11:58:43.743Z,5.56
2019-03-05T12:01:14.248Z,5.54
2019-03-05T12:03:43.114Z,5.61
2019-03-05T12:06:11.848Z,5.60
2019-03-05T12:08:40.985Z,5.45
2019-03-05T12:11:09.828Z,5.99
2019-03-05T12:13:39.166Z,6.80
2019-03-05T12:16:08.729Z,7.00
2019-03-05T12:18:37.460Z,7.14
2019-03-05T12:21:06.574Z,7.26
2019-03-05T12:23:35.322Z,7.43
2019-03-05T12:26:04.249Z,7.60
2019-03-05T12:28:34.490Z,7.59
2019-03-05T12:31:03.235Z,7.88
2019-03-05T12:33:32.014Z,8.23
2019-03-05T12:36:00.788Z,8.21
2019-03-05T12:38:29.806Z,8.48
2019-03-05T12:40:58.578Z,8.29
2019-03-05T12:43:27.687Z,7.75
2019-03-05T12:45:56.577Z,7.68
2019-03-05T12:48:25.560Z,7.41
2019-03-05T12:50:54.306Z,7.39
2019-03-05T12:53:24.766Z,7.62
2019-03-05T12:55:53.553Z,7.61
2019-03-05T12:58:22.803Z,7.28
2019-03-05T13:00:51.855Z,7.24
2019-03-05T13:03:20.942Z,7.49
2019-03-05T13:05:49.694Z,8.53
2019-03-05T13:08:18.429Z,9.23
2019-03-05T13:10:47.209Z,9.33
2019-03-05T13:13:15.960Z,8.51
2019-03-05T13:15:46.504Z,8.24
2019-03-05T13:18:15.269Z,8.13
2019-03-05T13:20:44.011Z,9.11
2019-03-05T13:23:12.805Z,9.90
2019-03-05T13:25:41.535Z,9.77
2019-03-05T13:28:10.258Z,9.33
2019-03-05T13:30:40.481Z,8.93
2019-03-05T13:33:09.542Z,9.11
2019-03-05T13:35:38.305Z,8.70
2019-03-05T13:38:09.708Z,9.35
2019-03-05T13:40:40.782Z,10.04
2019-03-05T13:43:10.143Z,9.99
2019-03-05T13:45:42.799Z,10.24
2019-03-05T13:48:23.670Z,10.25
2019-03-05T13:50:55.253Z,10.20
2019-03-05T13:53:33.063Z,10.34
2019-03-05T13:56:07.605Z,10.39
2019-03-05T13:58:54.621Z,10.31
2019-03-05T14:01:23.500Z,9.93
2019-03-05T14:04:00.899Z,10.17
2019-03-05T14:06:41.545Z,10.39
2019-03-05T14:09:15.911Z,10.01
2019-03-05T14:11:46.828Z,10.31
2019-03-05T14:14:21.348Z,10.28
2019-03-05T14:16:58.004Z,10.24
2019-03-05T14:19:26.739Z,9.94
2019-03-05T14:21:55.509Z,10.06
2019-03-05T14:24:24.281Z,9.97
2019-03-05T14:26:53.092Z,9.80
2019-03-05T14:29:21.900Z,9.54
2019-03-05T14:31:50.629Z,9.89
2019-03-05T14:34:19.461Z,10.18
2019-03-05T14:36:48.265Z,10.47
2019-03-05T14:39:24.479Z,10.84
2019-03-05T14:41:53.675Z,10.83
2019-03-05T14:44:24.766Z,10.22
2019-03-05T14:46:55.979Z,9.59
2019-03-05T14:49:25.368Z,9.35
2019-03-05T14:51:54.246Z,8.82
2019-03-05T14:54:23.067Z,8.70
2019-03-05T14:56:51.868Z,8.67
2019-03-05T14:59:21.088Z,8.66
2019-03-05T15:01:50.030Z,8.45
2019-03-05T15:04:18.811Z,8.48
2019-03-05T15:06:52.617Z,8.44
2019-03-05T15:09:22.020Z,8.43
2019-03-05T15:11:50.780Z,8.31
2019-03-05T15:14:19.557Z,8.38
2019-03-05T15:16:48.339Z,8.35
2019-03-05T15:19:21.418Z,8.23
2019-03-05T15:21:48.017Z,8.13
2019-03-05T15:24:16.923Z,8.17
2019-03-05T15:26:45.662Z,8.03
2019-03-05T15:29:14.600Z,8.04
2019-03-05T15:31:43.720Z,8.00
2019-03-05T15:34:12.516Z,7.88
2019-03-05T15:36:41.583Z,7.83
2019-03-05T15:39:10.422Z,7.80
2019-03-05T15:41:39.274Z,7.83
2019-03-05T15:44:08.229Z,7.80
2019-03-05T15:46:37.001Z,7.59
2019-03-05T15:49:06.620Z,7.68
2019-03-05T15:51:35.373Z,7.78
2019-03-05T15:54:04.563Z,7.75
2019-03-05T15:56:42.358Z,7.87
2019-03-05T15:59:11.198Z,7.81
2019-03-05T16:01:39.943Z,7.75
2019-03-05T16:04:08.678Z,7.85
2019-03-05T16:06:37.468Z,7.81
2019-03-05T16:09:09.085Z,7.72
2019-03-05T16:11:37.818Z,7.73
2019-03-05T16:14:06.574Z,7.69
2019-03-05T16:16:35.291Z,7.62
2019-03-05T16:19:04.064Z,7.61
2019-03-05T16:21:32.804Z,7.62
2019-03-05T16:24:02.712Z,7.50
2019-03-05T16:26:31.782Z,7.43
2019-03-05T16:29:00.519Z,7.44
2019-03-05T16:31:49.829Z,7.41
2019-03-05T16:34:19.223Z,7.29
2019-03-05T16:36:49.595Z,7.12
2019-03-05T16:39:33.352Z,7.02
2019-03-05T16:42:06.865Z,6.87
2019-03-05T16:44:46.375Z,6.68
2019-03-05T16:47:19.849Z,6.63
2019-03-05T16:50:06.690Z,6.49
2019-03-05T16:52:55.421Z,6.30
2019-03-05T16:55:40.694Z,6.02
2019-03-05T16:58:27.152Z,5.85
2019-03-05T17:01:03.520Z,5.78
2019-03-05T17:03:43.168Z,5.82
2019-03-05T17:06:28.809Z,5.76
2019-03-05T17:09:08.344Z,5.71
2019-03-05T17:11:55.211Z,5.71
2019-03-05T17:14:24.351Z,5.75
2019-03-05T17:16:53.171Z,5.76
2019-03-05T17:19:22.224Z,5.77
2019-03-05T17:21:53.023Z,5.67
2019-03-05T17:24:22.055Z,5.61
2019-03-05T17:26:50.819Z,5.51
2019-03-05T17:29:19.559Z,4.34
2019-03-05T17:31:48.362Z,3.56
2019-03-05T17:34:17.100Z,3.15
2019-03-05T17:36:46.147Z,2.97
2019-03-05T17:39:16.964Z,2.86
2019-03-05T17:41:46.031Z,2.88
2019-03-05T17:44:14.793Z,2.85
2019-03-05T17:46:43.914Z,3.05
2019-03-05T17:49:12.660Z,3.19
2019-03-05T17:51:41.788Z,3.25
2019-03-05T17:54:10.505Z,3.24
2019-03-05T17:56:39.304Z,2.94
2019-03-05T17:59:08.518Z,2.83
2019-03-05T18:01:37.323Z,2.94
2019-03-05T18:04:06.069Z,2.78
2019-03-05T18:06:35.222Z,2.80
2019-03-05T18:09:05.378Z,2.79
2019-03-05T18:11:34.435Z,2.80
2019-03-05T18:14:03.353Z,2.75
2019-03-05T18:16:32.309Z,2.64
2019-03-05T18:19:01.060Z,2.78
2019-03-05T18:21:29.865Z,2.82
2019-03-05T18:23:58.660Z,2.95
2019-03-05T18:26:27.653Z,2.98
2019-03-05T18:28:56.656Z,3.02
2019-03-05T18:31:25.400Z,2.86
2019-03-05T18:33:54.173Z,2.68
2019-03-05T18:36:22.927Z,2.71
2019-03-05T18:38:51.714Z,2.95
2019-03-05T18:41:20.549Z,3.04
2019-03-05T18:43:49.320Z,2.90
2019-03-05T18:46:18.093Z,2.95
2019-03-05T18:48:46.998Z,3.00
2019-03-05T18:51:16.453Z,3.18
2019-03-05T18:53:46.780Z,3.19
2019-03-05T18:56:15.575Z,3.17
2019-03-05T18:58:44.416Z,3.30
2019-03-05T19:01:13.629Z,3.47
2019-03-05T19:03:42.756Z,3.55
2019-03-05T19:06:11.839Z,3.58
2019-03-05T19:08:40.628Z,3.58
2019-03-05T19:11:09.463Z,3.55
2019-03-05T19:13:41.065Z,3.46
2019-03-05T19:16:10.589Z,3.41
2019-03-05T19:18:41.305Z,3.30
2019-03-05T19:21:10.398Z,3.25
2019-03-05T19:23:39.910Z,3.11
2019-03-05T19:26:09.914Z,3.01
2019-03-05T19:28:38.778Z,3.00
2019-03-05T19:31:07.910Z,3.07
2019-03-05T19:33:37.310Z,3.06
2019-03-05T19:36:08.350Z,3.03
2019-03-05T19:38:37.399Z,3.12
2019-03-05T19:41:07.972Z,3.06
2019-03-05T19:43:36.786Z,2.99
2019-03-05T19:46:06.165Z,3.14
2019-03-05T19:48:34.985Z,3.10
2019-03-05T19:51:03.924Z,3.23
2019-03-05T19:53:32.758Z,3.27
2019-03-05T19:56:01.565Z,3.28
2019-03-05T19:58:30.373Z,3.22
2019-03-05T20:01:05.077Z,3.14
2019-03-05T20:03:34.042Z,3.08
2019-03-05T20:06:03.093Z,3.02
2019-03-05T20:08:39.485Z,2.88
2019-03-05T20:11:03.036Z,2.87
2019-03-05T20:13:32.243Z,2.81
2019-03-05T20:16:01.641Z,2.77
2019-03-05T20:18:30.718Z,2.69
2019-03-05T20:20:59.930Z,2.68
2019-03-05T20:23:30.233Z,2.68
2019-03-05T20:26:00.801Z,2.69
2019-03-05T20:28:31.326Z,2.73
2019-03-05T20:31:00.511Z,2.81
2019-03-05T20:33:30.650Z,2.70
2019-03-05T20:35:59.963Z,2.74
2019-03-05T20:38:29.364Z,2.74
2019-03-05T20:40:58.204Z,2.68
2019-03-05T20:43:27.039Z,2.69
2019-03-05T20:46:07.755Z,2.75
2019-03-05T20:48:38.084Z,2.86
2019-03-05T20:51:07.047Z,2.75
2019-03-05T20:53:35.865Z,2.71
2019-03-05T20:56:04.778Z,2.64
2019-03-05T20:58:33.614Z,2.66
2019-03-05T21:01:06.548Z,2.72
2019-03-05T21:03:37.686Z,2.74
2019-03-05T21:06:06.768Z,2.69
2019-03-05T21:08:37.904Z,2.61
2019-03-05T21:11:08.444Z,2.64
2019-03-05T21:13:39.486Z,2.68
2019-03-05T21:16:08.664Z,2.63
2019-03-05T21:18:37.469Z,2.60
2019-03-05T21:21:06.533Z,2.65
2019-03-05T21:23:35.734Z,2.75
2019-03-05T21:26:04.831Z,2.80
2019-03-05T21:28:34.548Z,2.85
2019-03-05T21:31:06.915Z,2.82
2019-03-05T21:33:35.999Z,2.79
2019-03-05T21:36:05.084Z,2.82
2019-03-05T21:38:33.872Z,2.85
2019-03-05T21:41:02.610Z,2.73
2019-03-05T21:43:31.685Z,2.77
2019-03-05T21:46:06.154Z,2.90
2019-03-05T21:48:34.899Z,2.79
2019-03-05T21:51:03.662Z,2.89
2019-03-05T21:53:32.409Z,2.88
2019-03-05T21:56:01.649Z,2.84
2019-03-05T21:58:30.720Z,2.80
2019-03-05T22:00:59.505Z,2.87
2019-03-05T22:03:28.265Z,2.79
2019-03-05T22:05:57.009Z,2.77
2019-03-05T22:08:25.785Z,2.77
2019-03-05T22:10:54.574Z,2.75
2019-03-05T22:13:23.317Z,2.75
2019-03-05T22:15:52.059Z,2.65
2019-03-05T22:18:21.104Z,2.70
2019-03-05T22:20:49.849Z,2.68
2019-03-05T22:23:18.619Z,2.69
2019-03-05T22:25:47.347Z,2.82
2019-03-05T22:28:16.117Z,2.83
2019-03-05T22:30:44.859Z,2.74
2019-03-05T22:33:13.653Z,2.78
2019-03-05T22:35:42.429Z,2.68
2019-03-05T22:38:11.245Z,2.61
2019-03-05T22:40:40.014Z,2.62
2019-03-05T22:43:08.754Z,2.68
2019-03-05T22:45:37.554Z,2.59
2019-03-05T22:48:06.346Z,2.59
2019-03-05T22:50:35.079Z,2.53
2019-03-05T22:53:04.033Z,2.51
2019-03-05T22:55:32.766Z,2.44
2019-03-05T22:58:01.529Z,2.46
2019-03-05T23:00:43.177Z,2.41
2019-03-05T23:03:14.875Z,2.39
2019-03-05T23:05:44.999Z,2.46
2019-03-05T23:08:14.150Z,2.41
2019-03-05T23:10:42.918Z,2.41
2019-03-05T23:13:11.659Z,2.51
2019-03-05T23:15:40.429Z,2.48
2019-03-05T23:18:09.160Z,2.53
2019-03-05T23:20:38.087Z,2.49
2019-03-05T23:23:06.810Z,2.51
2019-03-05T23:25:35.604Z,2.57
2019-03-05T23:28:04.932Z,2.62
2019-03-05T23:30:33.684Z,2.76
2019-03-05T23:33:02.759Z,2.92
2019-03-05T23:35:31.991Z,3.11
2019-03-05T23:38:00.748Z,3.31
2019-03-05T23:40:29.886Z,3.39
2019-03-05T23:42:58.669Z,3.53
2019-03-05T23:45:27.797Z,3.59
2019-03-05T23:47:56.539Z,3.57
2019-03-05T23:50:25.298Z,3.54
2019-03-05T23:52:54.030Z,3.57
2019-03-05T23:55:22.931Z,3.56
2019-03-05T23:57:53.279Z,3.54
